Time;durP1;ratioP1;P1;durP2;ratioP2;P2;SDS_P1;SDS_P2;PMS_P1;PMS_P2;Temp;Humidity;BMP_temperature;BMP_pressure;BME280_temperature;BME280_humidity;BME280_pressure;Samples;Min_cycle;Max_cycle;Signal;HPM_P1;HPM_P2
2022/10/16 00:01:22;;;;;;;13.55;5.22;;;;;;;;;;5075595;28;20039;-73
2022/10/16 00:03:48;;;;;;;8.27;5.45;;;;;;;;;;5075348;28;20038;-73
2022/10/16 00:06:14;;;;;;;11.07;5.38;;;;;;;;;;5075924;28;20043;-73
2022/10/16 00:08:40;;;;;;;13.30;5.88;;;;;;;;;;5074875;28;20028;-73
2022/10/16 00:11:08;;;;;;;10.38;5.70;;;;;;;;;;5057386;28;20032;-73
2022/10/16 00:13:34;;;;;;;10.05;5.47;;;;;;;;;;5075374;28;20036;-74
2022/10/16 00:16:01;;;;;;;12.05;5.28;;;;;;;;;;5075377;28;20055;-74
2022/10/16 00:18:27;;;;;;;12.60;5.47;;;;;;;;;;5086449;28;20032;-73
2022/10/16 00:20:53;;;;;;;14.45;5.82;;;;;;;;;;5055319;28;20036;-73
2022/10/16 00:23:38;;;;;;;11.73;6.07;;;;;;;;;;5076510;28;20052;-74
2022/10/16 00:26:05;;;;;;;13.60;5.80;;;;;;;;;;5082163;28;20040;-74
2022/10/16 00:28:31;;;;;;;11.70;5.22;;;;;;;;;;5046750;28;20037;-74
2022/10/16 00:30:56;;;;;;;14.55;5.80;;;;;;;;;;5086542;28;20059;-74
2022/10/16 00:33:22;;;;;;;11.45;6.13;;;;;;;;;;5067911;28;20040;-74
2022/10/16 00:35:48;;;;;;;11.70;5.82;;;;;;;;;;5072479;28;20098;-73
2022/10/16 00:38:14;;;;;;;13.13;5.82;;;;;;;;;;5083571;28;20502;-73
2022/10/16 00:40:39;;;;;;;11.27;6.13;;;;;;;;;;5100706;28;20047;-73
2022/10/16 00:43:28;;;;;;;13.32;5.40;;;;;;;;;;5079803;28;20048;-74
2022/10/16 00:45:54;;;;;;;14.13;5.78;;;;;;;;;;5054967;28;20045;-75
2022/10/16 00:48:19;;;;;;;13.02;5.70;;;;;;;;;;5076515;28;20378;-73
2022/10/16 00:50:45;;;;;;;14.52;5.82;;;;;;;;;;5060566;28;20164;-74
2022/10/16 00:53:11;;;;;;;10.18;5.43;;;;;;;;;;5069792;28;20360;-75
2022/10/16 00:55:37;;;;;;;12.80;5.32;;;;;;;;;;5079709;28;20468;-75
2022/10/16 00:58:02;;;;;;;10.65;6.30;;;;;;;;;;5057097;28;20031;-76
2022/10/16 01:00:28;;;;;;;13.90;5.88;;;;;;;;;;5097141;28;20120;-76
2022/10/16 01:02:55;;;;;;;13.10;5.78;;;;;;;;;;5079353;28;20393;-75
2022/10/16 01:05:23;;;;;;;11.23;5.57;;;;;;;;;;5090934;28;20127;-75
2022/10/16 01:07:58;;;;;;;15.77;5.93;;;;;;;;;;5085236;28;20028;-75
2022/10/16 01:10:34;;;;;;;15.27;5.95;;;;;;;;;;5083763;28;20356;-74
2022/10/16 01:13:03;;;;;;;12.27;5.82;;;;;;;;;;5080756;28;20672;-75
2022/10/16 01:15:47;;;;;;;14.45;6.10;;;;;;;;;;5069117;28;20052;-75
2022/10/16 01:18:32;;;;;;;12.27;5.97;;;;;;;;;;5070355;28;20109;-75
2022/10/16 01:21:05;;;;;;;10.68;5.55;;;;;;;;;;5088931;28;20040;-74
2022/10/16 01:23:43;;;;;;;8.18;5.72;;;;;;;;;;5076654;28;20042;-74
2022/10/16 01:26:09;;;;;;;15.30;6.30;;;;;;;;;;5056653;28;20035;-75
2022/10/16 01:28:38;;;;;;;13.00;5.70;;;;;;;;;;5081540;28;20036;-75
2022/10/16 01:31:04;;;;;;;8.20;4.95;;;;;;;;;;5076976;28;20394;-74
2022/10/16 01:33:34;;;;;;;10.38;5.30;;;;;;;;;;5053135;28;20102;-74
2022/10/16 01:36:02;;;;;;;8.25;5.35;;;;;;;;;;5068223;28;20044;-75
2022/10/16 01:38:36;;;;;;;11.48;5.53;;;;;;;;;;5084603;28;20387;-75
2022/10/16 01:41:24;;;;;;;11.63;5.18;;;;;;;;;;5075080;28;20039;-75
2022/10/16 01:43:56;;;;;;;8.43;5.47;;;;;;;;;;5099603;28;20049;-74
2022/10/16 01:46:22;;;;;;;11.45;5.68;;;;;;;;;;5058317;28;20476;-74
2022/10/16 01:48:50;;;;;;;10.88;6.32;;;;;;;;;;5043102;28;20062;-74
2022/10/16 01:51:17;;;;;;;9.52;5.55;;;;;;;;;;5092236;28;20131;-74
2022/10/16 01:53:46;;;;;;;10.68;5.53;;;;;;;;;;5062329;28;20081;-75
2022/10/16 01:56:12;;;;;;;10.65;5.38;;;;;;;;;;5031816;28;20430;-74
2022/10/16 01:58:41;;;;;;;10.83;6.10;;;;;;;;;;5083319;28;20075;-73
2022/10/16 02:01:07;;;;;;;9.43;5.07;;;;;;;;;;5060425;28;20119;-75
2022/10/16 02:03:34;;;;;;;10.52;5.53;;;;;;;;;;5057635;28;20470;-74
2022/10/16 02:05:59;;;;;;;10.85;5.72;;;;;;;;;;5080839;28;20040;-74
2022/10/16 02:08:28;;;;;;;9.77;5.43;;;;;;;;;;5063541;28;20038;-74
2022/10/16 02:10:54;;;;;;;15.57;5.93;;;;;;;;;;5090909;28;20040;-75
2022/10/16 02:13:26;;;;;;;11.37;6.47;;;;;;;;;;5101304;28;20040;-75
2022/10/16 02:15:52;;;;;;;11.07;5.73;;;;;;;;;;5083091;28;20051;-75
2022/10/16 02:18:20;;;;;;;12.53;6.67;;;;;;;;;;5093269;28;20036;-75
2022/10/16 02:20:53;;;;;;;15.93;6.83;;;;;;;;;;5089431;28;20035;-75
2022/10/16 02:23:23;;;;;;;14.37;6.50;;;;;;;;;;5052240;28;20036;-75
2022/10/16 02:25:50;;;;;;;10.35;6.22;;;;;;;;;;5071521;28;20783;-75
2022/10/16 02:28:28;;;;;;;12.07;6.87;;;;;;;;;;5089926;28;20043;-75
2022/10/16 02:30:57;;;;;;;13.57;6.73;;;;;;;;;;5074707;28;20085;-75
2022/10/16 02:33:24;;;;;;;14.27;6.73;;;;;;;;;;5074402;28;20062;-74
2022/10/16 02:35:50;;;;;;;11.33;6.63;;;;;;;;;;5100805;28;20048;-75
2022/10/16 02:38:17;;;;;;;12.77;6.87;;;;;;;;;;5055026;28;20118;-75
2022/10/16 02:40:44;;;;;;;13.30;6.63;;;;;;;;;;5058571;28;20037;-75
2022/10/16 02:43:10;;;;;;;13.37;6.17;;;;;;;;;;5052036;28;20471;-75
2022/10/16 02:45:36;;;;;;;13.57;6.47;;;;;;;;;;5090925;28;20043;-75
2022/10/16 02:48:01;;;;;;;12.07;6.13;;;;;;;;;;5104810;28;20196;-74
2022/10/16 02:50:27;;;;;;;9.10;5.90;;;;;;;;;;5060213;28;20044;-74
2022/10/16 02:52:53;;;;;;;18.07;5.90;;;;;;;;;;5111587;28;20058;-73
2022/10/16 02:55:18;;;;;;;13.33;6.53;;;;;;;;;;5093784;28;20040;-73
2022/10/16 02:57:44;;;;;;;13.80;5.77;;;;;;;;;;5094252;28;20048;-73
2022/10/16 03:00:11;;;;;;;12.63;5.87;;;;;;;;;;5094436;28;20040;-71
2022/10/16 03:02:36;;;;;;;8.63;5.23;;;;;;;;;;5060653;28;20470;-72
2022/10/16 03:05:02;;;;;;;14.27;6.17;;;;;;;;;;5110617;28;20040;-72
2022/10/16 03:07:28;;;;;;;11.17;5.57;;;;;;;;;;5076698;28;20035;-72
2022/10/16 03:09:55;;;;;;;9.60;5.30;;;;;;;;;;5094970;28;20044;-71
2022/10/16 03:12:21;;;;;;;12.27;5.37;;;;;;;;;;5076187;28;20135;-71
2022/10/16 03:14:46;;;;;;;11.80;5.77;;;;;;;;;;5094930;28;20067;-71
2022/10/16 03:17:12;;;;;;;10.70;5.37;;;;;;;;;;5060530;28;20134;-71
2022/10/16 03:19:38;;;;;;;9.10;5.50;;;;;;;;;;5093720;28;20431;-71
2022/10/16 03:22:04;;;;;;;11.97;5.63;;;;;;;;;;5059546;28;20063;-71
2022/10/16 03:24:29;;;;;;;10.77;6.50;;;;;;;;;;5053433;28;20061;-71
2022/10/16 03:26:55;;;;;;;11.53;6.27;;;;;;;;;;5058073;28;20029;-70
2022/10/16 03:29:21;;;;;;;12.37;6.07;;;;;;;;;;5082873;28;20507;-70
2022/10/16 03:31:48;;;;;;;13.00;6.27;;;;;;;;;;5079707;28;20068;-72
2022/10/16 03:34:13;;;;;;;12.00;6.33;;;;;;;;;;5060568;28;20040;-70
2022/10/16 03:36:39;;;;;;;11.13;6.10;;;;;;;;;;5092669;28;20119;-73
2022/10/16 03:39:05;;;;;;;10.10;5.80;;;;;;;;;;5057845;28;20052;-70
2022/10/16 03:41:30;;;;;;;9.43;5.73;;;;;;;;;;5061475;28;20434;-70
2022/10/16 03:43:56;;;;;;;13.67;6.03;;;;;;;;;;5082205;28;20126;-67
2022/10/16 03:46:21;;;;;;;8.77;5.47;;;;;;;;;;5077421;28;20105;-67
2022/10/16 03:48:47;;;;;;;10.67;5.70;;;;;;;;;;5094497;28;20127;-70
2022/10/16 03:51:12;;;;;;;11.70;5.77;;;;;;;;;;5074648;28;20469;-68
2022/10/16 03:53:38;;;;;;;27.07;6.20;;;;;;;;;;5078248;28;20044;-67
2022/10/16 03:56:04;;;;;;;10.53;5.63;;;;;;;;;;5075719;28;20056;-66
2022/10/16 03:58:29;;;;;;;10.33;5.70;;;;;;;;;;5075639;28;20036;-69
2022/10/16 04:00:55;;;;;;;11.90;5.40;;;;;;;;;;5079576;28;20067;-68
2022/10/16 04:03:21;;;;;;;12.10;6.07;;;;;;;;;;5074956;28;20485;-67
2022/10/16 04:05:46;;;;;;;12.07;5.60;;;;;;;;;;5094294;28;20138;-68
2022/10/16 04:08:12;;;;;;;9.27;5.57;;;;;;;;;;5096337;28;20703;-67
2022/10/16 04:10:37;;;;;;;11.10;6.17;;;;;;;;;;5075256;28;20051;-72
2022/10/16 04:13:03;;;;;;;10.67;6.27;;;;;;;;;;5058428;28;20033;-73
2022/10/16 04:15:28;;;;;;;12.17;6.07;;;;;;;;;;5080665;28;20035;-71
2022/10/16 04:17:54;;;;;;;11.17;6.10;;;;;;;;;;5078013;28;20410;-69
2022/10/16 04:20:20;;;;;;;12.47;5.77;;;;;;;;;;5077040;28;20037;-72
2022/10/16 04:22:46;;;;;;;12.27;6.10;;;;;;;;;;5052583;28;20036;-73
2022/10/16 04:25:12;;;;;;;9.37;5.33;;;;;;;;;;5077523;28;20033;-71
2022/10/16 04:27:38;;;;;;;14.43;6.23;;;;;;;;;;5092016;28;20040;-75
2022/10/16 04:30:04;;;;;;;13.57;5.80;;;;;;;;;;5079262;28;20458;-75
2022/10/16 04:32:29;;;;;;;10.10;5.30;;;;;;;;;;5075480;28;20123;-79
2022/10/16 04:34:55;;;;;;;13.43;6.27;;;;;;;;;;5053564;28;20529;-76
2022/10/16 04:37:25;;;;;;;12.83;6.30;;;;;;;;;;5061338;28;20051;-74
2022/10/16 04:39:52;;;;;;;14.73;6.97;;;;;;;;;;5075106;28;20044;-77
2022/10/16 04:42:18;;;;;;;11.67;5.93;;;;;;;;;;5095818;28;20055;-71
2022/10/16 04:44:43;;;;;;;12.33;6.10;;;;;;;;;;5056807;28;20036;-74
2022/10/16 04:47:09;;;;;;;15.47;7.33;;;;;;;;;;5077375;28;20040;-72
2022/10/16 04:49:35;;;;;;;13.20;6.40;;;;;;;;;;5054899;28;20035;-73
2022/10/16 04:52:01;;;;;;;13.63;6.50;;;;;;;;;;5094533;28;20032;-73
2022/10/16 04:54:26;;;;;;;10.43;6.03;;;;;;;;;;5082548;28;20347;-73
2022/10/16 04:56:53;;;;;;;14.90;6.47;;;;;;;;;;5082951;28;20478;-73
2022/10/16 04:59:19;;;;;;;18.13;6.17;;;;;;;;;;5082429;28;20025;-72
2022/10/16 05:01:45;;;;;;;18.67;6.60;;;;;;;;;;5052414;28;20053;-72
2022/10/16 05:04:12;;;;;;;13.13;6.77;;;;;;;;;;5075732;28;20040;-74
2022/10/16 05:06:41;;;;;;;12.30;7.03;;;;;;;;;;5079783;28;20040;-73
2022/10/16 05:09:06;;;;;;;9.63;6.47;;;;;;;;;;5058764;28;20051;-72
2022/10/16 05:11:32;;;;;;;14.00;6.70;;;;;;;;;;5073240;28;20082;-73
2022/10/16 05:13:58;;;;;;;11.70;6.53;;;;;;;;;;5041512;28;20119;-73
2022/10/16 05:16:25;;;;;;;14.27;7.50;;;;;;;;;;5073511;28;20036;-74
2022/10/16 05:18:54;;;;;;;15.90;7.60;;;;;;;;;;5076779;28;20037;-74
2022/10/16 05:21:24;;;;;;;12.87;7.63;;;;;;;;;;5068344;28;20037;-73
2022/10/16 05:23:49;;;;;;;15.50;7.50;;;;;;;;;;5049766;28;20028;-74
2022/10/16 05:26:15;;;;;;;16.23;7.07;;;;;;;;;;5081471;28;20054;-75
2022/10/16 05:28:44;;;;;;;12.50;7.17;;;;;;;;;;5091584;28;20032;-76
2022/10/16 05:31:10;;;;;;;14.97;7.70;;;;;;;;;;5057514;28;20535;-74
2022/10/16 05:33:35;;;;;;;11.03;6.77;;;;;;;;;;5090598;28;20033;-73
2022/10/16 05:36:07;;;;;;;14.50;7.60;;;;;;;;;;5076953;28;20036;-72
2022/10/16 05:38:33;;;;;;;17.13;8.23;;;;;;;;;;5055486;28;20528;-73
2022/10/16 05:40:59;;;;;;;16.77;8.13;;;;;;;;;;5078663;28;20101;-74
2022/10/16 05:43:24;;;;;;;13.17;7.80;;;;;;;;;;5081979;28;20060;-73
2022/10/16 05:45:57;;;;;;;14.13;7.60;;;;;;;;;;5094856;28;20387;-74
2022/10/16 05:48:23;;;;;;;16.53;7.83;;;;;;;;;;5078280;28;20040;-75
2022/10/16 05:50:56;;;;;;;13.77;6.80;;;;;;;;;;5071960;28;20040;-75
2022/10/16 05:53:25;;;;;;;13.80;7.70;;;;;;;;;;5079972;28;20044;-74
2022/10/16 05:55:54;;;;;;;12.45;7.45;;;;;;;;;;5077120;28;20101;-74
2022/10/16 05:58:20;;;;;;;12.90;6.90;;;;;;;;;;5060634;28;20472;-73
2022/10/16 06:00:52;;;;;;;15.65;7.60;;;;;;;;;;5061269;28;20127;-73
2022/10/16 06:03:18;;;;;;;11.10;7.15;;;;;;;;;;5060327;28;20027;-73
2022/10/16 06:05:43;;;;;;;13.27;7.45;;;;;;;;;;5079633;28;20094;-73
2022/10/16 06:08:09;;;;;;;13.52;7.38;;;;;;;;;;5056621;28;20029;-74
2022/10/16 06:10:37;;;;;;;17.88;8.05;;;;;;;;;;5078716;28;20079;-74
2022/10/16 06:13:04;;;;;;;17.95;7.95;;;;;;;;;;5095415;28;20043;-75
2022/10/16 06:15:30;;;;;;;15.60;9.23;;;;;;;;;;5076156;28;20047;-74
2022/10/16 06:17:56;;;;;;;17.90;7.68;;;;;;;;;;5046696;28;20101;-74
2022/10/16 06:20:24;;;;;;;14.88;7.43;;;;;;;;;;5082417;28;20032;-75
2022/10/16 06:22:50;;;;;;;11.30;7.10;;;;;;;;;;5081181;28;20077;-74
2022/10/16 06:25:15;;;;;;;12.95;7.15;;;;;;;;;;5081226;28;20040;-74
2022/10/16 06:27:41;;;;;;;15.73;7.95;;;;;;;;;;5079942;28;20031;-74
2022/10/16 06:30:07;;;;;;;19.83;8.30;;;;;;;;;;5082393;28;20032;-74
2022/10/16 06:32:33;;;;;;;22.40;8.30;;;;;;;;;;5059926;28;20370;-74
2022/10/16 06:34:59;;;;;;;15.55;7.35;;;;;;;;;;5095482;28;20043;-74
2022/10/16 06:37:25;;;;;;;17.55;7.38;;;;;;;;;;5065631;28;20036;-73
2022/10/16 06:39:52;;;;;;;16.98;7.72;;;;;;;;;;5048852;28;20036;-73
2022/10/16 06:42:18;;;;;;;16.33;7.75;;;;;;;;;;5082629;28;20055;-72
2022/10/16 06:44:44;;;;;;;10.40;6.50;;;;;;;;;;5066130;28;20070;-74
2022/10/16 06:47:10;;;;;;;13.70;6.70;;;;;;;;;;5065896;28;20079;-73
2022/10/16 06:49:36;;;;;;;12.57;7.22;;;;;;;;;;5081599;28;20032;-75
2022/10/16 06:52:01;;;;;;;15.85;6.38;;;;;;;;;;5083872;28;20035;-75
2022/10/16 06:54:27;;;;;;;14.43;7.22;;;;;;;;;;5064009;28;20025;-75
2022/10/16 06:56:56;;;;;;;12.63;6.28;;;;;;;;;;5080261;28;20127;-75
2022/10/16 06:59:31;;;;;;;13.52;6.38;;;;;;;;;;5078658;28;20051;-75
2022/10/16 07:01:56;;;;;;;11.40;5.60;;;;;;;;;;5064303;28;20032;-75
2022/10/16 07:04:22;;;;;;;10.93;5.70;;;;;;;;;;5058198;28;20139;-74
2022/10/16 07:06:48;;;;;;;13.15;5.50;;;;;;;;;;5077696;28;20072;-75
2022/10/16 07:09:13;;;;;;;17.23;4.57;;;;;;;;;;5057533;28;20760;-74
2022/10/16 07:11:39;;;;;;;10.30;5.20;;;;;;;;;;5059382;28;20067;-77
2022/10/16 07:14:15;;;;;;;9.73;5.15;;;;;;;;;;5069197;28;20024;-73
2022/10/16 07:16:40;;;;;;;9.07;4.20;;;;;;;;;;5080174;28;20050;-76
2022/10/16 07:19:06;;;;;;;13.30;4.65;;;;;;;;;;5057153;28;20470;-73
2022/10/16 07:21:35;;;;;;;16.02;5.05;;;;;;;;;;5077791;28;20035;-71
2022/10/16 07:24:01;;;;;;;10.93;5.18;;;;;;;;;;5077299;28;20044;-73
2022/10/16 07:26:29;;;;;;;6.63;4.13;;;;;;;;;;5071557;28;20060;-73
2022/10/16 07:28:55;;;;;;;11.18;4.70;;;;;;;;;;5077793;28;20467;-73
2022/10/16 07:31:22;;;;;;;8.07;4.35;;;;;;;;;;5076231;28;20032;-75
2022/10/16 07:33:48;;;;;;;10.63;4.30;;;;;;;;;;5062621;28;20144;-74
2022/10/16 07:36:14;;;;;;;11.75;3.95;;;;;;;;;;5068546;28;20151;-74
2022/10/16 07:38:42;;;;;;;11.10;4.20;;;;;;;;;;5093318;28;20366;-74
2022/10/16 07:41:09;;;;;;;14.07;4.70;;;;;;;;;;5077190;28;20049;-73
2022/10/16 07:43:38;;;;;;;9.63;4.28;;;;;;;;;;5085388;28;20120;-74
2022/10/16 07:46:06;;;;;;;15.70;4.05;;;;;;;;;;5074822;28;20109;-74
2022/10/16 07:48:33;;;;;;;9.60;3.92;;;;;;;;;;5078103;28;20510;-74
2022/10/16 07:50:59;;;;;;;7.75;4.10;;;;;;;;;;5075153;28;20047;-75
2022/10/16 07:53:25;;;;;;;10.30;3.92;;;;;;;;;;5068942;28;20028;-75
2022/10/16 07:55:52;;;;;;;7.93;4.05;;;;;;;;;;5056107;28;20052;-80
2022/10/16 07:58:18;;;;;;;8.57;4.05;;;;;;;;;;5075372;28;20035;-77
2022/10/16 08:00:45;;;;;;;7.82;4.25;;;;;;;;;;5080197;28;20051;-76
2022/10/16 08:03:10;;;;;;;7.93;4.20;;;;;;;;;;5078147;28;20117;-76
2022/10/16 08:05:36;;;;;;;8.70;4.47;;;;;;;;;;5079237;28;20040;-76
2022/10/16 08:08:02;;;;;;;8.23;4.53;;;;;;;;;;5077937;28;20031;-76
2022/10/16 08:10:28;;;;;;;15.45;5.25;;;;;;;;;;5074699;28;20475;-75
2022/10/16 08:12:54;;;;;;;9.30;3.85;;;;;;;;;;5062804;28;20039;-74
2022/10/16 08:15:21;;;;;;;10.35;4.50;;;;;;;;;;5074542;28;20090;-75
2022/10/16 08:18:02;;;;;;;12.65;4.65;;;;;;;;;;5071695;28;20035;-75
2022/10/16 08:20:28;;;;;;;15.98;4.13;;;;;;;;;;5079372;28;20165;-73
2022/10/16 08:22:54;;;;;;;9.85;3.67;;;;;;;;;;5077517;28;20037;-73
2022/10/16 08:25:20;;;;;;;10.27;4.15;;;;;;;;;;5067407;28;20050;-75
2022/10/16 08:27:46;;;;;;;9.32;3.72;;;;;;;;;;5071104;28;20066;-75
2022/10/16 08:30:16;;;;;;;11.63;3.63;;;;;;;;;;5090867;28;20040;-76
2022/10/16 08:32:46;;;;;;;6.07;3.75;;;;;;;;;;5054022;28;20055;-75
2022/10/16 08:35:23;;;;;;;7.57;4.13;;;;;;;;;;5072478;28;20156;-75
2022/10/16 08:37:52;;;;;;;8.00;4.30;;;;;;;;;;5088871;28;20035;-75
2022/10/16 08:40:25;;;;;;;9.27;3.92;;;;;;;;;;5055043;28;20431;-75
2022/10/16 08:42:55;;;;;;;8.25;3.80;;;;;;;;;;5056230;28;20064;-75
2022/10/16 08:45:24;;;;;;;12.43;3.58;;;;;;;;;;5057085;28;20116;-75
2022/10/16 08:48:00;;;;;;;11.57;4.30;;;;;;;;;;5056929;28;20039;-75
2022/10/16 08:50:27;;;;;;;9.52;3.92;;;;;;;;;;5087412;28;20383;-74
2022/10/16 08:52:54;;;;;;;15.32;3.95;;;;;;;;;;5054299;28;20052;-76
2022/10/16 08:55:28;;;;;;;7.20;3.75;;;;;;;;;;5070177;28;20024;-75
2022/10/16 08:57:54;;;;;;;5.70;3.47;;;;;;;;;;5087769;28;20095;-75
2022/10/16 09:00:20;;;;;;;5.30;3.05;;;;;;;;;;5070663;28;20056;-76
2022/10/16 09:03:06;;;;;;;8.43;3.20;;;;;;;;;;5087519;28;20580;-75
2022/10/16 09:05:51;;;;;;;8.73;3.38;;;;;;;;;;5048934;28;20037;-72
2022/10/16 09:08:28;;;;;;;11.68;3.50;;;;;;;;;;5087091;28;20040;-72
2022/10/16 09:11:14;;;;;;;6.75;3.47;;;;;;;;;;5069582;28;20427;-74
2022/10/16 09:13:39;;;;;;;7.43;3.30;;;;;;;;;;5086377;28;20047;-73
2022/10/16 09:16:28;;;;;;;5.30;3.53;;;;;;;;;;5069986;28;20048;-75
2022/10/16 09:18:53;;;;;;;9.52;3.03;;;;;;;;;;5053887;28;20052;-74
2022/10/16 09:21:26;;;;;;;6.63;3.75;;;;;;;;;;5070448;28;20225;-73
2022/10/16 09:23:53;;;;;;;7.47;3.53;;;;;;;;;;5053834;28;20176;-73
2022/10/16 09:26:21;;;;;;;8.30;4.60;;;;;;;;;;5069814;28;20055;-74
2022/10/16 09:28:48;;;;;;;6.25;3.22;;;;;;;;;;5071261;28;20040;-74
2022/10/16 09:31:25;;;;;;;7.47;3.85;;;;;;;;;;5070358;28;20040;-74
2022/10/16 09:33:55;;;;;;;11.65;3.38;;;;;;;;;;5070314;28;20467;-74
2022/10/16 09:36:22;;;;;;;6.97;3.15;;;;;;;;;;5069234;28;20063;-75
2022/10/16 09:38:49;;;;;;;7.82;2.80;;;;;;;;;;5070149;28;20059;-77
2022/10/16 09:41:15;;;;;;;6.03;2.60;;;;;;;;;;5069620;28;20036;-73
2022/10/16 09:43:47;;;;;;;6.28;3.15;;;;;;;;;;5069655;28;20064;-73
2022/10/16 09:46:26;;;;;;;8.65;2.92;;;;;;;;;;5085877;28;20033;-73
2022/10/16 09:48:54;;;;;;;7.22;2.90;;;;;;;;;;5069948;28;20098;-73
2022/10/16 09:51:23;;;;;;;8.40;2.72;;;;;;;;;;5087444;28;20079;-73
2022/10/16 09:53:49;;;;;;;8.45;3.00;;;;;;;;;;5069622;28;20048;-72
2022/10/16 09:56:22;;;;;;;15.70;2.97;;;;;;;;;;5069924;28;20397;-72
2022/10/16 09:58:52;;;;;;;5.50;2.60;;;;;;;;;;5069840;28;20056;-75
2022/10/16 10:01:18;;;;;;;5.63;2.60;;;;;;;;;;5070122;28;20033;-74
2022/10/16 10:03:45;;;;;;;6.20;2.40;;;;;;;;;;5070823;28;20032;-74
2022/10/16 10:06:19;;;;;;;7.35;2.50;;;;;;;;;;5072648;28;20040;-74
2022/10/16 10:08:54;;;;;;;7.22;2.50;;;;;;;;;;5073029;28;20035;-75
2022/10/16 10:11:36;;;;;;;12.25;2.50;;;;;;;;;;5056877;28;20367;-75
2022/10/16 10:14:24;;;;;;;5.70;2.80;;;;;;;;;;5090138;28;20131;-75
2022/10/16 10:16:52;;;;;;;9.95;2.58;;;;;;;;;;5051074;28;20436;-74
2022/10/16 10:19:18;;;;;;;6.72;2.60;;;;;;;;;;5056835;28;20061;-75
2022/10/16 10:21:44;;;;;;;6.05;2.92;;;;;;;;;;5090269;28;20020;-75
2022/10/16 10:24:13;;;;;;;4.57;2.40;;;;;;;;;;5087250;28;20025;-74
2022/10/16 10:26:41;;;;;;;3.95;2.47;;;;;;;;;;5072859;28;20036;-74
2022/10/16 10:29:09;;;;;;;;;;;;;;;;;;5058028;28;20032;-77
2022/10/16 10:31:47;;;;;;;3.35;2.10;;;;;;;;;;5056481;28;19958;-74
2022/10/16 10:34:25;;;;;;;4.38;2.47;;;;;;;;;;5039734;28;20105;-74
2022/10/16 10:37:03;;;;;;;5.78;2.55;;;;;;;;;;5040133;28;20055;-75
2022/10/16 10:39:35;;;;;;;7.30;2.35;;;;;;;;;;5040254;28;20089;-74
2022/10/16 10:42:00;;;;;;;10.80;2.78;;;;;;;;;;5039970;28;20364;-74
2022/10/16 10:44:49;;;;;;;4.70;2.53;;;;;;;;;;5039768;28;20110;-74
2022/10/16 10:47:15;;;;;;;8.50;2.70;;;;;;;;;;5056155;28;20039;-75
2022/10/16 10:49:59;;;;;;;5.53;2.70;;;;;;;;;;5039252;28;20040;-74
2022/10/16 10:52:45;;;;;;;9.32;2.53;;;;;;;;;;5039434;28;20421;-74
2022/10/16 10:55:23;;;;;;;7.93;2.80;;;;;;;;;;5009210;28;20044;-75
2022/10/16 10:57:52;;;;;;;5.05;2.25;;;;;;;;;;5040245;28;20054;-75
2022/10/16 11:00:23;;;;;;;7.90;2.33;;;;;;;;;;5041655;28;20033;-77
2022/10/16 11:02:55;;;;;;;3.08;2.00;;;;;;;;;;5074288;28;20072;-78
2022/10/16 11:05:37;;;;;;;5.18;2.10;;;;;;;;;;5039860;28;20819;-75
2022/10/16 11:08:30;;;;;;;6.80;2.05;;;;;;;;;;5056996;28;20454;-73
2022/10/16 11:11:06;;;;;;;4.53;2.00;;;;;;;;;;5032098;28;20048;-72
2022/10/16 11:13:32;;;;;;;4.72;2.72;;;;;;;;;;5039256;28;20037;-73
2022/10/16 11:15:59;;;;;;;6.20;2.40;;;;;;;;;;5041394;28;20055;-74
2022/10/16 11:18:29;;;;;;;5.20;2.65;;;;;;;;;;5041614;28;20437;-76
2022/10/16 11:21:08;;;;;;;4.28;2.30;;;;;;;;;;5074529;28;20044;-74
2022/10/16 11:23:41;;;;;;;5.00;2.00;;;;;;;;;;5042716;28;20044;-72
2022/10/16 11:26:12;;;;;;;3.25;2.15;;;;;;;;;;5060059;28;20524;-73
2022/10/16 11:28:42;;;;;;;4.85;2.30;;;;;;;;;;5040410;28;20036;-70
2022/10/16 11:31:34;;;;;;;9.73;2.50;;;;;;;;;;5055132;28;20094;-75
2022/10/16 11:34:02;;;;;;;9.57;2.63;;;;;;;;;;5038322;28;20044;-72
2022/10/16 11:36:37;;;;;;;6.43;2.03;;;;;;;;;;5045421;28;20364;-71
2022/10/16 11:39:09;;;;;;;5.40;2.10;;;;;;;;;;5084693;28;20036;-71
2022/10/16 11:41:38;;;;;;;3.17;1.85;;;;;;;;;;5065486;28;20039;-69
2022/10/16 11:44:10;;;;;;;5.50;2.10;;;;;;;;;;5074645;28;20097;-68
2022/10/16 11:46:37;;;;;;;8.45;2.22;;;;;;;;;;5058187;28;20039;-71
2022/10/16 11:49:06;;;;;;;5.60;2.30;;;;;;;;;;5075087;28;20478;-72
2022/10/16 11:51:36;;;;;;;3.85;2.33;;;;;;;;;;5075025;28;20032;-70
2022/10/16 11:54:22;;;;;;;9.73;2.70;;;;;;;;;;5091959;28;20047;-73
2022/10/16 11:56:51;;;;;;;10.23;2.88;;;;;;;;;;5043001;28;20048;-73
2022/10/16 11:59:17;;;;;;;11.75;2.55;;;;;;;;;;5108927;28;20431;-71
2022/10/16 12:01:46;;;;;;;6.38;2.28;;;;;;;;;;5058372;28;20039;-73
2022/10/16 12:04:19;;;;;;;4.95;2.05;;;;;;;;;;5108740;28;20048;-73
2022/10/16 12:06:55;;;;;;;5.63;2.40;;;;;;;;;;5090168;28;20040;-73
2022/10/16 12:09:27;;;;;;;5.40;2.00;;;;;;;;;;5091620;28;20108;-71
2022/10/16 12:11:52;;;;;;;4.78;2.28;;;;;;;;;;5057067;28;20064;-69
2022/10/16 12:14:20;;;;;;;7.18;2.05;;;;;;;;;;5091769;28;20094;-72
2022/10/16 12:16:58;;;;;;;3.20;2.10;;;;;;;;;;5057704;28;20046;-72
2022/10/16 12:19:25;;;;;;;3.70;2.13;;;;;;;;;;5108016;28;20035;-71
2022/10/16 12:21:52;;;;;;;6.75;2.85;;;;;;;;;;5074190;28;20093;-72
2022/10/16 12:24:35;;;;;;;7.85;2.50;;;;;;;;;;5091281;28;20032;-75
2022/10/16 12:27:01;;;;;;;6.13;2.38;;;;;;;;;;5090696;28;20154;-71
2022/10/16 12:29:30;;;;;;;5.72;2.75;;;;;;;;;;5107954;28;20062;-71
2022/10/16 12:31:56;;;;;;;8.15;3.30;;;;;;;;;;5057925;28;20134;-77
2022/10/16 12:34:41;;;;;;;5.10;3.00;;;;;;;;;;5061686;28;20087;-74
2022/10/16 12:37:27;;;;;;;8.18;3.00;;;;;;;;;;5090002;28;20056;-72
2022/10/16 12:39:55;;;;;;;4.70;2.33;;;;;;;;;;5074313;28;20240;-72
2022/10/16 12:42:34;;;;;;;8.40;2.40;;;;;;;;;;5091687;28;20450;-71
2022/10/16 12:45:13;;;;;;;5.32;2.42;;;;;;;;;;5091473;28;20089;-72
2022/10/16 12:47:48;;;;;;;9.77;2.75;;;;;;;;;;5057129;28;20071;-72
2022/10/16 12:50:24;;;;;;;5.35;2.60;;;;;;;;;;5107911;28;20036;-76
2022/10/16 12:52:50;;;;;;;6.47;2.50;;;;;;;;;;5073810;28;20028;-71
2022/10/16 12:55:17;;;;;;;3.50;2.08;;;;;;;;;;5080849;28;20139;-72
2022/10/16 12:57:58;;;;;;;4.93;2.30;;;;;;;;;;5053656;28;20393;-70
2022/10/16 13:00:23;;;;;;;;;;;;;;;;;;5068764;28;20047;-73
2022/10/16 13:02:49;;;;;;;4.55;3.00;;;;;;;;;;5067604;28;19912;-75
2022/10/16 13:05:32;;;;;;;9.23;2.45;;;;;;;;;;5074987;28;20470;-75
2022/10/16 13:08:06;;;;;;;4.57;2.30;;;;;;;;;;5068454;28;20039;-70
2022/10/16 13:10:34;;;;;;;5.18;2.00;;;;;;;;;;5081910;28;20119;-71
2022/10/16 13:13:09;;;;;;;7.80;2.58;;;;;;;;;;5080108;28;20466;-70
2022/10/16 13:16:13;;;;;;;5.05;2.38;;;;;;;;;;5086621;28;20058;-70
2022/10/16 13:18:48;;;;;;;7.00;2.50;;;;;;;;;;5055336;28;20045;-71
2022/10/16 13:21:16;;;;;;;4.82;2.30;;;;;;;;;;5020107;28;20043;-72
2022/10/16 13:23:57;;;;;;;5.78;2.47;;;;;;;;;;5034664;28;20036;-71
2022/10/16 13:26:31;;;;;;;8.00;4.30;;;;;;;;;;5069445;28;20037;-71
2022/10/16 13:29:01;;;;;;;5.60;2.92;;;;;;;;;;5068083;28;20063;-72
2022/10/16 13:31:28;;;;;;;11.45;3.30;;;;;;;;;;5047528;28;20047;-72
2022/10/16 13:33:55;;;;;;;7.68;3.63;;;;;;;;;;5080820;28;20226;-69
2022/10/16 13:36:22;;;;;;;8.48;3.83;;;;;;;;;;5065497;28;20483;-70
2022/10/16 13:38:48;;;;;;;9.50;4.43;;;;;;;;;;5083577;28;20703;-72
2022/10/16 13:41:16;;;;;;;7.60;4.70;;;;;;;;;;5064654;28;20040;-71
2022/10/16 13:43:43;;;;;;;14.75;4.00;;;;;;;;;;5084291;28;20143;-70
2022/10/16 13:46:27;;;;;;;9.40;3.65;;;;;;;;;;5085648;28;20039;-70
2022/10/16 13:49:24;;;;;;;11.40;4.32;;;;;;;;;;5081879;28;20036;-74
2022/10/16 13:51:54;;;;;;;11.25;3.85;;;;;;;;;;5051799;28;20028;-71
2022/10/16 13:54:19;;;;;;;13.05;3.53;;;;;;;;;;5085572;28;20028;-72
2022/10/16 13:56:45;;;;;;;9.15;3.40;;;;;;;;;;5056270;28;20050;-70
2022/10/16 13:59:26;;;;;;;12.00;5.45;;;;;;;;;;5082028;28;20069;-72
2022/10/16 14:01:55;;;;;;;20.30;6.53;;;;;;;;;;5075106;28;20039;-71
2022/10/16 14:04:20;;;;;;;24.65;7.10;;;;;;;;;;5100407;28;20100;-69
2022/10/16 14:06:48;;;;;;;14.07;5.57;;;;;;;;;;5068004;28;20127;-74
2022/10/16 14:09:19;;;;;;;12.70;6.00;;;;;;;;;;5084998;28;20115;-76
2022/10/16 14:11:54;;;;;;;15.63;4.88;;;;;;;;;;5095157;28;20443;-73
2022/10/16 14:14:19;;;;;;;17.13;7.43;;;;;;;;;;5078802;28;20040;-73
2022/10/16 14:16:46;;;;;;;10.73;4.50;;;;;;;;;;5063266;28;20044;-73
2022/10/16 14:19:30;;;;;;;8.80;3.97;;;;;;;;;;5057462;28;20046;-73
2022/10/16 14:21:56;;;;;;;16.63;4.55;;;;;;;;;;5057683;28;20033;-73
2022/10/16 14:24:33;;;;;;;21.52;4.30;;;;;;;;;;5057828;28;20039;-74
2022/10/16 14:26:59;;;;;;;17.23;5.25;;;;;;;;;;5074850;28;20098;-71
2022/10/16 14:29:25;;;;;;;10.93;5.30;;;;;;;;;;5057973;28;20202;-71
2022/10/16 14:31:55;;;;;;;10.90;5.32;;;;;;;;;;5075052;28;20093;-73
2022/10/16 14:34:24;;;;;;;14.77;6.78;;;;;;;;;;5074848;28;20028;-70
2022/10/16 14:36:51;;;;;;;22.05;9.15;;;;;;;;;;5057664;28;20047;-71
2022/10/16 14:39:19;;;;;;;16.85;8.95;;;;;;;;;;5057479;28;20044;-71
2022/10/16 14:41:46;;;;;;;22.15;7.82;;;;;;;;;;5057672;28;20121;-71
2022/10/16 14:44:12;;;;;;;15.80;6.93;;;;;;;;;;5057770;28;20160;-74
2022/10/16 14:46:39;;;;;;;17.60;6.60;;;;;;;;;;5057250;28;20116;-72
2022/10/16 14:49:08;;;;;;;14.10;5.07;;;;;;;;;;5057768;28;20040;-73